createdAt,value
2017-08-28T00:00:33.078Z,0
2017-08-28T00:01:43.413Z,0
2017-08-28T00:02:53.761Z,0
2017-08-28T00:04:03.778Z,0
2017-08-28T00:05:14.169Z,0
2017-08-28T00:06:24.518Z,0
2017-08-28T00:07:34.848Z,0
2017-08-28T00:08:45.247Z,0
2017-08-28T00:09:55.586Z,0
2017-08-28T00:11:05.983Z,0
2017-08-28T00:12:16.005Z,0
2017-08-28T00:13:26.354Z,0
2017-08-28T00:14:36.689Z,0
2017-08-28T00:15:47.041Z,0
2017-08-28T00:16:57.441Z,0
2017-08-28T00:18:07.783Z,0
2017-08-28T00:19:18.122Z,0
2017-08-28T00:20:28.162Z,0
2017-08-28T00:21:38.189Z,0
2017-08-28T00:22:48.874Z,0
2017-08-28T00:23:59.219Z,0
2017-08-28T00:25:09.580Z,0
2017-08-28T00:26:19.923Z,0
2017-08-28T00:27:30.264Z,0
2017-08-28T00:28:40.361Z,0
2017-08-28T00:29:50.111Z,0
2017-08-28T00:31:00.472Z,0
2017-08-28T00:32:10.820Z,0
2017-08-28T00:33:21.160Z,0
2017-08-28T00:34:32.675Z,0
2017-08-28T00:35:43.016Z,0
2017-08-28T00:36:53.042Z,0
2017-08-28T00:38:03.070Z,0
2017-08-28T00:39:13.480Z,0
2017-08-28T00:40:23.881Z,0
2017-08-28T00:41:34.228Z,0
2017-08-28T00:42:44.571Z,0
2017-08-28T00:43:54.923Z,0
2017-08-28T00:45:04.943Z,0
2017-08-28T00:46:15.331Z,0
2017-08-28T00:47:25.728Z,0
2017-08-28T00:48:36.072Z,0
2017-08-28T00:49:46.413Z,0
2017-08-28T00:50:56.754Z,0
2017-08-28T00:52:06.843Z,0
2017-08-28T00:53:17.212Z,0
2017-08-28T00:54:27.555Z,0
2017-08-28T00:55:37.927Z,0
2017-08-28T00:56:47.983Z,0
2017-08-28T00:57:58.389Z,0
2017-08-28T00:59:08.732Z,0
2017-08-28T01:00:19.086Z,0
2017-08-28T01:01:29.453Z,0
2017-08-28T01:02:39.797Z,0
2017-08-28T01:03:49.875Z,0
2017-08-28T01:05:01.410Z,0
2017-08-28T01:06:11.739Z,0
2017-08-28T01:07:21.468Z,0
2017-08-28T01:08:31.498Z,0
2017-08-28T01:09:41.898Z,0
2017-08-28T01:10:51.914Z,0
2017-08-28T01:12:01.946Z,0
2017-08-28T01:13:11.971Z,0
2017-08-28T01:14:21.685Z,0
2017-08-28T01:15:31.754Z,0
2017-08-28T01:16:41.792Z,0
2017-08-28T01:17:52.152Z,0
2017-08-28T01:19:02.477Z,0
2017-08-28T01:20:12.829Z,0
2017-08-28T01:21:23.220Z,0
2017-08-28T01:22:35.641Z,0
2017-08-28T01:23:45.666Z,0
2017-08-28T01:24:55.685Z,0
2017-08-28T01:26:05.730Z,0
2017-08-28T01:27:16.122Z,0
2017-08-28T01:28:26.140Z,0
2017-08-28T01:29:36.482Z,0
2017-08-28T01:30:46.809Z,0
2017-08-28T01:31:57.182Z,0
2017-08-28T01:33:07.570Z,0
2017-08-28T01:34:17.978Z,0
2017-08-28T01:35:28.020Z,0
2017-08-28T01:36:38.366Z,0
2017-08-28T01:37:48.699Z,0
2017-08-28T01:38:59.092Z,0
2017-08-28T01:40:09.128Z,0
2017-08-28T01:41:19.472Z,0
2017-08-28T01:42:29.826Z,0
2017-08-28T01:43:40.165Z,0
2017-08-28T01:44:50.561Z,0
2017-08-28T01:46:00.931Z,0
2017-08-28T01:47:11.271Z,0
2017-08-28T01:48:21.597Z,0
2017-08-28T01:49:31.944Z,0
2017-08-28T01:50:42.323Z,0
2017-08-28T01:51:52.347Z,0
2017-08-28T01:53:02.400Z,0
2017-08-28T01:54:12.434Z,0
2017-08-28T01:55:22.816Z,0
2017-08-28T01:56:33.201Z,0
2017-08-28T01:57:45.625Z,0
2017-08-28T01:58:57.031Z,0
2017-08-28T02:00:07.081Z,0
2017-08-28T02:01:17.439Z,0
2017-08-28T02:02:27.853Z,0
2017-08-28T02:03:38.205Z,0
2017-08-28T02:04:48.579Z,0
2017-08-28T02:05:58.938Z,0
2017-08-28T02:07:09.304Z,0
2017-08-28T02:08:19.691Z,0
2017-08-28T02:09:29.733Z,0
2017-08-28T02:10:39.441Z,0
2017-08-28T02:11:50.902Z,0
2017-08-28T02:13:01.430Z,0
2017-08-28T02:14:11.500Z,0
2017-08-28T02:15:21.512Z,0
2017-08-28T02:16:31.853Z,0
2017-08-28T02:17:42.204Z,0
2017-08-28T02:18:52.572Z,0
2017-08-28T02:20:02.973Z,0
2017-08-28T02:21:13.434Z,0
2017-08-28T02:22:23.637Z,0
2017-08-28T02:23:33.674Z,0
2017-08-28T02:24:44.021Z,0
2017-08-28T02:25:54.080Z,0
2017-08-28T02:27:04.415Z,0
2017-08-28T02:28:14.761Z,0
2017-08-28T02:29:24.493Z,0
2017-08-28T02:30:34.218Z,0
2017-08-28T02:31:44.622Z,0
2017-08-28T02:32:54.982Z,0
2017-08-28T02:34:05.010Z,0
2017-08-28T02:35:15.351Z,0
2017-08-28T02:36:25.699Z,0
2017-08-28T02:37:36.094Z,0
2017-08-28T02:38:45.802Z,0
2017-08-28T02:39:55.550Z,0
2017-08-28T02:41:05.892Z,0
2017-08-28T02:42:16.231Z,0
2017-08-28T02:43:26.614Z,0
2017-08-28T02:44:36.645Z,0
2017-08-28T02:45:47.017Z,0
2017-08-28T02:46:57.047Z,0
2017-08-28T02:48:09.307Z,0
2017-08-28T02:49:19.711Z,0
2017-08-28T02:50:29.750Z,0
2017-08-28T02:51:40.122Z,0
2017-08-28T02:52:50.480Z,0
2017-08-28T02:54:00.889Z,0
2017-08-28T02:55:11.273Z,0
2017-08-28T02:56:21.618Z,0
2017-08-28T02:57:31.960Z,0
2017-08-28T02:58:42.300Z,0
2017-08-28T02:59:52.649Z,0
2017-08-28T03:01:02.802Z,0
2017-08-28T03:33:05.775Z,0
2017-08-28T03:34:15.792Z,0
2017-08-28T03:35:26.165Z,0
2017-08-28T03:36:36.508Z,0
2017-08-28T03:37:46.858Z,4
2017-08-28T03:38:57.246Z,4
2017-08-28T03:40:07.571Z,4
2017-08-28T03:41:17.606Z,0
2017-08-28T03:42:27.634Z,4
2017-08-28T03:43:37.642Z,0
2017-08-28T03:44:47.716Z,4
2017-08-28T03:45:58.077Z,4
2017-08-28T03:47:08.409Z,4
2017-08-28T03:48:18.756Z,8
2017-08-28T03:49:29.122Z,8
2017-08-28T03:50:39.201Z,8
2017-08-28T03:51:49.232Z,12
2017-08-28T03:52:59.579Z,16
2017-08-28T03:54:09.917Z,20
2017-08-28T03:55:20.266Z,24
2017-08-28T03:56:30.660Z,32
2017-08-28T03:57:40.999Z,40
2017-08-28T03:58:51.358Z,52
2017-08-28T04:00:01.701Z,60
2017-08-28T04:01:12.052Z,72
2017-08-28T04:02:22.498Z,84
2017-08-28T04:03:32.835Z,96
2017-08-28T04:04:43.179Z,112
2017-08-28T04:05:53.200Z,120
2017-08-28T04:07:03.585Z,132
2017-08-28T04:08:13.982Z,148
2017-08-28T04:09:25.670Z,168
2017-08-28T04:10:36.016Z,188
2017-08-28T04:11:46.367Z,208
2017-08-28T04:12:56.710Z,224
2017-08-28T04:14:07.131Z,248
2017-08-28T04:15:17.455Z,268
2017-08-28T04:16:27.804Z,296
2017-08-28T04:17:38.151Z,320
2017-08-28T04:18:48.488Z,348
2017-08-28T04:19:58.878Z,372
2017-08-28T04:21:10.227Z,392
2017-08-28T04:22:20.581Z,408
2017-08-28T04:23:31.269Z,420
2017-08-28T04:24:41.602Z,436
2017-08-28T04:25:51.979Z,436
2017-08-28T04:27:02.295Z,432
2017-08-28T04:28:12.657Z,420
2017-08-28T04:29:23.011Z,416
2017-08-28T04:30:33.357Z,424
2017-08-28T04:31:43.423Z,436
2017-08-28T04:32:53.769Z,444
2017-08-28T04:34:04.106Z,444
2017-08-28T04:35:14.446Z,448
2017-08-28T04:36:24.778Z,444
2017-08-28T04:37:34.876Z,444
2017-08-28T04:38:44.938Z,452
2017-08-28T04:39:54.950Z,472
2017-08-28T04:41:05.302Z,492
2017-08-28T04:42:15.011Z,512
2017-08-28T04:43:25.368Z,532
2017-08-28T04:44:35.792Z,548
2017-08-28T04:45:45.811Z,572
2017-08-28T04:46:55.861Z,596
2017-08-28T04:48:05.875Z,628
2017-08-28T04:49:16.219Z,664
2017-08-28T04:50:26.611Z,688
2017-08-28T04:51:36.333Z,704
2017-08-28T04:52:46.668Z,716
2017-08-28T04:53:57.017Z,716
2017-08-28T04:55:07.031Z,712
2017-08-28T04:56:16.475Z,716
2017-08-28T04:57:26.501Z,728
2017-08-28T04:58:36.853Z,748
2017-08-28T04:59:46.871Z,764
2017-08-28T05:00:56.908Z,788
2017-08-28T05:02:07.303Z,820
2017-08-28T05:03:17.636Z,884
2017-08-28T05:04:27.341Z,964
2017-08-28T05:05:37.418Z,1056
2017-08-28T05:06:47.763Z,1124
2017-08-28T05:07:58.162Z,1176
2017-08-28T05:09:08.199Z,1240
2017-08-28T05:10:17.906Z,1308
2017-08-28T05:11:28.267Z,1392
2017-08-28T05:12:38.609Z,1468
2017-08-28T05:13:49.007Z,1552
2017-08-28T05:14:59.367Z,1624
2017-08-28T05:16:09.729Z,1652
2017-08-28T05:17:20.069Z,1692
2017-08-28T05:18:30.459Z,1736
2017-08-28T05:19:40.539Z,1796
2017-08-28T05:20:50.935Z,1876
2017-08-28T05:22:00.653Z,1932
2017-08-28T05:23:10.361Z,1924
2017-08-28T05:24:20.723Z,1880
2017-08-28T05:25:30.800Z,1864
2017-08-28T05:26:40.826Z,1848
2017-08-28T05:27:51.187Z,2352
2017-08-28T05:29:01.570Z,1976
2017-08-28T05:30:11.636Z,1752
2017-08-28T05:31:22.038Z,1724
2017-08-28T05:32:32.399Z,1700
2017-08-28T05:33:42.762Z,1724
2017-08-28T05:34:52.787Z,1816
2017-08-28T05:36:03.115Z,1880
2017-08-28T05:37:13.197Z,1984
2017-08-28T05:38:23.544Z,2088
2017-08-28T05:39:33.902Z,2120
2017-08-28T05:40:43.952Z,2092
2017-08-28T05:41:54.300Z,2040
2017-08-28T05:43:04.395Z,2000
2017-08-28T05:44:14.750Z,1992
2017-08-28T05:45:25.139Z,1968
2017-08-28T05:46:35.477Z,1952
2017-08-28T05:47:45.518Z,1948
2017-08-28T05:48:55.917Z,1920
2017-08-28T05:50:06.263Z,1868
2017-08-28T05:51:16.605Z,1800
2017-08-28T05:52:26.630Z,1748
2017-08-28T05:53:36.978Z,1716
2017-08-28T05:54:47.360Z,1720
2017-08-28T05:55:57.386Z,1748
2017-08-28T05:57:07.777Z,1800
2017-08-28T05:58:18.123Z,1872
2017-08-28T05:59:28.470Z,2044
2017-08-28T06:00:38.863Z,2384
2017-08-28T06:01:48.896Z,2872
2017-08-28T06:02:59.275Z,3416
2017-08-28T06:04:09.618Z,3744
2017-08-28T06:05:19.661Z,4032
2017-08-28T06:06:30.022Z,4180
2017-08-28T06:07:40.064Z,4824
2017-08-28T06:08:50.427Z,5792
2017-08-28T06:10:00.460Z,5836
2017-08-28T06:11:10.819Z,5480
2017-08-28T06:12:21.221Z,5052
2017-08-28T06:13:31.275Z,4968
2017-08-28T06:14:41.612Z,4944
2017-08-28T06:15:51.998Z,5100
2017-08-28T06:17:02.083Z,5296
2017-08-28T06:18:12.438Z,5176
2017-08-28T06:19:22.786Z,4412
2017-08-28T06:20:33.132Z,4412
2017-08-28T06:21:43.481Z,4476
2017-08-28T06:22:53.876Z,4660
2017-08-28T06:24:04.229Z,4744
2017-08-28T06:25:14.269Z,5116
2017-08-28T06:26:24.616Z,5096
2017-08-28T06:27:34.663Z,5060
2017-08-28T06:28:45.065Z,4776
2017-08-28T06:29:55.408Z,4584
2017-08-28T06:31:05.463Z,4592
2017-08-28T06:32:15.491Z,4612
2017-08-28T06:33:25.827Z,4496
2017-08-28T06:34:35.899Z,4472
2017-08-28T06:35:46.249Z,4636
2017-08-28T06:36:56.592Z,4636
2017-08-28T06:38:06.939Z,4544
2017-08-28T06:39:16.974Z,4700
2017-08-28T06:40:27.372Z,4956
2017-08-28T06:41:37.408Z,5240
2017-08-28T06:42:47.765Z,5720
2017-08-28T06:43:57.800Z,5836
2017-08-28T06:45:08.154Z,5968
2017-08-28T06:46:18.241Z,6048
2017-08-28T06:47:28.280Z,6036
2017-08-28T06:48:38.307Z,5960
2017-08-28T06:49:48.656Z,5984
2017-08-28T06:50:58.713Z,5956
2017-08-28T06:52:09.129Z,5848
2017-08-28T06:53:19.467Z,5832
2017-08-28T06:54:29.814Z,5800
2017-08-28T06:55:39.840Z,5712
2017-08-28T06:56:50.173Z,5628
2017-08-28T06:58:00.249Z,5656
2017-08-28T06:59:10.281Z,5776
2017-08-28T07:00:20.618Z,5976
2017-08-28T07:01:30.658Z,6156
2017-08-28T07:02:41.060Z,6084
2017-08-28T07:03:51.442Z,6068
2017-08-28T07:05:01.815Z,5856
2017-08-28T07:06:11.871Z,5736
2017-08-28T07:07:22.204Z,5712
2017-08-28T07:08:32.542Z,5680
2017-08-28T07:09:42.957Z,5696
2017-08-28T07:10:53.300Z,5688
2017-08-28T07:12:03.654Z,5752
2017-08-28T07:13:13.717Z,5764
2017-08-28T07:14:23.761Z,5616
2017-08-28T07:15:34.185Z,5548
2017-08-28T07:16:44.516Z,5520
2017-08-28T07:17:54.229Z,5808
2017-08-28T07:19:04.573Z,5908
2017-08-28T07:20:14.922Z,5628
2017-08-28T07:21:25.002Z,5808
2017-08-28T07:22:35.341Z,5800
2017-08-28T07:23:45.363Z,5936
2017-08-28T07:24:55.416Z,6208
2017-08-28T07:26:05.443Z,6300
2017-08-28T07:27:15.825Z,6536
2017-08-28T07:28:26.215Z,6768
2017-08-28T07:29:36.563Z,7676
2017-08-28T07:30:46.916Z,7716
2017-08-28T07:31:57.274Z,7540
2017-08-28T07:33:07.665Z,7188
2017-08-28T07:34:18.024Z,6944
2017-08-28T07:35:28.054Z,6656
2017-08-28T07:36:38.672Z,5992
2017-08-28T07:37:49.026Z,5228
2017-08-28T07:38:59.411Z,4824
2017-08-28T07:40:09.438Z,4576
2017-08-28T07:41:19.791Z,4364
2017-08-28T07:42:30.149Z,4156
2017-08-28T07:43:40.501Z,3976
2017-08-28T07:44:50.259Z,3828
2017-08-28T07:46:00.280Z,3756
2017-08-28T07:47:12.528Z,3768
2017-08-28T07:48:22.865Z,3800
2017-08-28T07:49:33.218Z,3800
2017-08-28T07:50:43.614Z,3776
2017-08-28T07:51:54.009Z,3744
2017-08-28T07:53:04.048Z,3752
2017-08-28T07:54:14.406Z,3788
2017-08-28T07:55:24.750Z,3876
2017-08-28T07:56:35.147Z,4116
2017-08-28T07:57:45.181Z,4356
2017-08-28T07:58:55.526Z,4700
2017-08-28T08:00:05.866Z,5908
2017-08-28T08:01:15.889Z,6240
2017-08-28T08:02:25.986Z,6068
2017-08-28T08:03:36.347Z,5980
2017-08-28T08:04:46.689Z,6000
2017-08-28T08:05:57.047Z,5932
2017-08-28T08:07:07.075Z,5656
2017-08-28T08:08:17.468Z,6180
2017-08-28T08:09:27.513Z,6368
2017-08-28T08:10:37.550Z,6248
2017-08-28T08:11:47.893Z,6224
2017-08-28T08:12:58.232Z,6168
2017-08-28T08:14:08.676Z,6048
2017-08-28T08:15:18.387Z,6024
2017-08-28T08:16:28.737Z,6108
2017-08-28T08:17:38.762Z,6096
2017-08-28T08:18:49.113Z,6036
2017-08-28T08:19:59.508Z,6024
2017-08-28T08:21:09.534Z,5900
2017-08-28T08:22:19.543Z,5624
2017-08-28T08:23:29.903Z,5776
2017-08-28T08:24:40.255Z,5920
2017-08-28T08:25:50.331Z,4920
2017-08-28T08:27:00.682Z,5944
2017-08-28T08:28:11.051Z,5940
2017-08-28T08:29:21.591Z,6020
2017-08-28T08:30:31.929Z,6032
2017-08-28T08:31:42.323Z,5988
2017-08-28T08:32:52.672Z,6004
2017-08-28T08:34:03.027Z,6036
2017-08-28T08:35:13.049Z,6036
2017-08-28T08:36:23.400Z,6024
2017-08-28T08:37:33.500Z,6040
2017-08-28T08:38:43.852Z,6044
2017-08-28T08:39:54.249Z,6064
2017-08-28T08:41:04.635Z,6052
2017-08-28T08:42:15.015Z,6048
2017-08-28T08:43:25.448Z,5992
2017-08-28T08:44:35.846Z,6016
2017-08-28T08:45:46.218Z,6052
2017-08-28T08:46:56.600Z,6092
2017-08-28T08:48:06.659Z,6108
2017-08-28T08:49:17.074Z,6072
2017-08-28T08:50:27.134Z,6132
2017-08-28T08:51:37.510Z,6224
2017-08-28T08:52:47.969Z,6216
2017-08-28T08:53:58.332Z,6216
2017-08-28T08:55:08.755Z,6252
2017-08-28T08:56:19.414Z,6196
2017-08-28T08:57:29.822Z,6140
2017-08-28T08:58:39.901Z,6200
2017-08-28T08:59:49.654Z,6268
2017-08-28T09:01:00.089Z,6312
2017-08-28T09:02:10.159Z,6348
2017-08-28T09:03:20.557Z,6444
2017-08-28T09:04:30.622Z,6464
2017-08-28T09:05:41.001Z,6428
2017-08-28T09:06:51.117Z,6456
2017-08-28T09:08:02.104Z,6468
2017-08-28T09:09:12.197Z,6456
2017-08-28T09:10:22.587Z,6600
2017-08-28T09:11:32.959Z,6636
2017-08-28T09:12:42.740Z,6816
2017-08-28T09:13:53.134Z,6936
2017-08-28T09:15:03.431Z,6976
2017-08-28T09:16:13.805Z,6404
2017-08-28T09:17:24.169Z,7128
2017-08-28T09:18:34.289Z,6480
2017-08-28T09:19:44.681Z,5508
2017-08-28T09:20:55.068Z,5640
2017-08-28T09:22:05.434Z,5800
2017-08-28T09:23:15.168Z,5912
2017-08-28T09:24:25.599Z,6108
2017-08-28T09:25:35.658Z,6476
2017-08-28T09:26:46.049Z,7912
2017-08-28T09:27:56.109Z,7972
2017-08-28T09:29:06.136Z,7648
2017-08-28T09:30:16.556Z,7360
2017-08-28T09:31:26.924Z,7152
2017-08-28T09:32:37.295Z,7064
2017-08-28T09:33:47.673Z,7104
2017-08-28T09:34:58.032Z,7192
2017-08-28T09:36:08.466Z,7392
2017-08-28T09:37:18.846Z,7812
2017-08-28T09:38:28.887Z,8344
2017-08-28T09:39:39.294Z,9504
2017-08-28T09:40:49.640Z,7984
2017-08-28T09:41:59.720Z,8824
2017-08-28T09:43:10.066Z,7708
2017-08-28T09:44:20.433Z,7812
2017-08-28T09:45:30.480Z,7624
2017-08-28T09:46:40.824Z,7636
2017-08-28T09:47:51.235Z,7900
2017-08-28T09:49:01.580Z,8444
2017-08-28T09:50:11.956Z,8968
2017-08-28T09:51:22.302Z,9944
2017-08-28T09:52:32.031Z,10500
2017-08-28T09:53:42.711Z,10136
2017-08-28T09:54:52.760Z,9668
2017-08-28T09:56:03.100Z,8544
2017-08-28T09:57:13.455Z,6968
2017-08-28T09:58:23.518Z,6656
2017-08-28T09:59:33.937Z,6076
2017-08-28T10:00:43.981Z,6088
2017-08-28T10:01:53.718Z,6380
2017-08-28T10:03:04.090Z,6820
2017-08-28T10:04:14.460Z,7184
2017-08-28T10:05:24.889Z,7312
2017-08-28T10:06:34.945Z,7504
2017-08-28T10:07:45.299Z,7592
2017-08-28T10:08:55.670Z,7672
2017-08-28T10:10:06.020Z,7684
2017-08-28T10:11:16.436Z,7624
2017-08-28T10:12:26.471Z,7616
2017-08-28T10:13:36.812Z,7660
2017-08-28T10:14:47.167Z,7600
2017-08-28T10:15:57.539Z,7348
2017-08-28T10:17:07.960Z,7024
2017-08-28T10:18:18.314Z,6752
2017-08-28T10:19:28.670Z,6568
2017-08-28T10:20:38.709Z,6328
2017-08-28T10:21:49.067Z,6288
2017-08-28T10:22:59.467Z,6356
2017-08-28T10:24:09.505Z,6452
2017-08-28T10:25:19.538Z,6684
2017-08-28T10:26:29.922Z,6776
2017-08-28T10:27:40.300Z,6576
2017-08-28T10:28:50.698Z,6264
2017-08-28T10:30:01.056Z,6104
2017-08-28T10:31:11.092Z,6044
2017-08-28T10:32:21.469Z,6152
2017-08-28T10:33:31.204Z,6384
2017-08-28T10:34:41.237Z,6884
2017-08-28T10:35:51.654Z,9184
2017-08-28T10:37:01.694Z,8844
2017-08-28T10:38:12.074Z,8940
2017-08-28T10:39:22.103Z,9312
2017-08-28T10:40:32.467Z,9668
2017-08-28T10:41:42.235Z,9724
2017-08-28T10:42:52.610Z,9576
2017-08-28T10:44:02.965Z,9300
2017-08-28T10:45:13.319Z,8976
2017-08-28T10:46:24.417Z,9740
2017-08-28T10:47:34.816Z,9324
2017-08-28T10:48:45.176Z,9628
2017-08-28T10:49:55.526Z,9632
2017-08-28T10:51:05.873Z,10604
2017-08-28T10:52:16.237Z,10828
2017-08-28T10:53:26.637Z,11112
2017-08-28T10:54:36.987Z,9364
2017-08-28T10:55:47.019Z,7868
2017-08-28T10:56:57.366Z,7412
2017-08-28T10:58:07.390Z,7168
2017-08-28T10:59:20.095Z,7016
2017-08-28T11:00:30.455Z,7100
2017-08-28T11:01:40.510Z,9016
2017-08-28T11:02:50.891Z,9188
2017-08-28T11:04:01.249Z,9144
2017-08-28T11:05:11.646Z,9128
2017-08-28T11:06:22.003Z,9188
2017-08-28T11:07:32.356Z,9108
2017-08-28T11:08:42.433Z,8912
2017-08-28T11:09:52.806Z,8948
2017-08-28T11:11:03.182Z,8820
2017-08-28T11:12:14.895Z,8668
2017-08-28T11:13:25.281Z,8740
2017-08-28T11:14:35.651Z,8716
2017-08-28T11:15:46.050Z,8704
2017-08-28T11:16:56.136Z,8792
2017-08-28T11:18:06.201Z,8852
2017-08-28T11:19:16.241Z,8784
2017-08-28T11:20:26.291Z,8784
2017-08-28T11:21:36.328Z,8936
2017-08-28T11:22:46.744Z,9264
2017-08-28T11:23:57.115Z,9284
2017-08-28T11:25:07.507Z,9388
2017-08-28T11:26:17.871Z,9492
2017-08-28T11:27:27.905Z,7468
2017-08-28T11:28:38.341Z,9324
2017-08-28T11:29:48.694Z,9664
2017-08-28T11:30:59.046Z,7168
2017-08-28T11:32:09.088Z,6604
2017-08-28T11:33:19.444Z,6544
2017-08-28T11:34:29.861Z,7676
2017-08-28T11:35:40.243Z,8460
2017-08-28T11:36:50.608Z,6712
2017-08-28T11:38:01.638Z,7340
2017-08-28T11:39:12.014Z,5808
2017-08-28T11:40:22.088Z,5740
2017-08-28T11:41:32.446Z,8124
2017-08-28T11:42:42.830Z,6716
2017-08-28T11:43:53.202Z,5760
2017-08-28T11:45:03.254Z,7320
2017-08-28T11:46:13.666Z,8188
2017-08-28T11:47:24.025Z,8176
2017-08-28T11:48:34.086Z,8020
2017-08-28T11:49:44.449Z,8012
2017-08-28T11:50:54.797Z,8120
2017-08-28T11:52:04.894Z,8120
2017-08-28T11:53:14.931Z,7996
2017-08-28T11:54:25.288Z,8036
2017-08-28T11:55:35.325Z,8060
2017-08-28T11:56:45.683Z,8176
2017-08-28T11:57:56.048Z,8232
2017-08-28T11:59:06.917Z,8224
2017-08-28T12:00:18.528Z,8204
2017-08-28T12:01:31.140Z,8200
2017-08-28T12:02:41.743Z,8288
2017-08-28T12:03:52.132Z,8528
2017-08-28T12:05:02.195Z,8780
2017-08-28T12:06:12.557Z,9044
2017-08-28T12:07:22.592Z,9400
2017-08-28T12:08:32.666Z,7108
2017-08-28T12:09:43.050Z,7272
2017-08-28T12:10:53.418Z,7772
2017-08-28T12:12:03.781Z,10740
2017-08-28T12:13:14.151Z,11156
2017-08-28T12:14:23.949Z,10520
2017-08-28T12:15:34.295Z,8028
2017-08-28T12:16:44.639Z,8632
2017-08-28T12:17:54.704Z,7020
2017-08-28T12:19:04.746Z,6648
2017-08-28T12:20:15.152Z,6380
2017-08-28T12:21:25.563Z,6156
2017-08-28T12:22:35.916Z,5860
2017-08-28T12:23:46.277Z,5580
2017-08-28T12:24:56.639Z,5416
2017-08-28T12:26:07.057Z,5228
2017-08-28T12:27:17.424Z,5000
2017-08-28T12:28:26.837Z,4784
2017-08-28T12:29:37.203Z,4692
2017-08-28T12:30:49.257Z,4640
2017-08-28T12:32:00.405Z,4572
2017-08-28T12:33:10.762Z,4544
2017-08-28T12:34:21.123Z,4488
2017-08-28T12:35:31.483Z,4324
2017-08-28T12:36:41.836Z,4156
2017-08-28T12:37:52.258Z,4056
2017-08-28T12:39:02.622Z,4068
2017-08-28T12:40:12.675Z,4180
2017-08-28T12:41:23.040Z,4252
2017-08-28T12:42:33.402Z,4292
2017-08-28T12:43:43.833Z,4352
2017-08-28T12:44:54.085Z,4528
2017-08-28T12:46:04.460Z,4680
2017-08-28T12:47:14.837Z,4724
2017-08-28T12:48:25.219Z,4680
2017-08-28T12:49:34.676Z,4672
2017-08-28T12:50:45.035Z,4684
2017-08-28T12:51:55.787Z,4728
2017-08-28T12:53:07.253Z,4724
2017-08-28T12:54:17.314Z,4732
2017-08-28T12:55:27.720Z,4808
2017-08-28T12:56:38.084Z,4824
2017-08-28T12:57:48.447Z,4888
2017-08-28T12:58:58.830Z,4932
2017-08-28T13:00:08.877Z,4852
2017-08-28T13:01:19.311Z,4764
2017-08-28T13:02:29.676Z,4712
2017-08-28T13:03:40.034Z,4716
2017-08-28T13:04:50.394Z,4732
2017-08-28T13:06:00.772Z,4764
2017-08-28T13:07:11.191Z,4884
2017-08-28T13:08:21.255Z,5124
2017-08-28T13:09:31.296Z,5316
2017-08-28T13:10:41.647Z,6768
2017-08-28T13:11:52.005Z,5784
2017-08-28T13:13:02.409Z,6032
2017-08-28T13:14:12.782Z,6544
2017-08-28T13:15:24.593Z,6776
2017-08-28T13:16:34.943Z,6984
2017-08-28T13:17:45.302Z,7220
2017-08-28T13:18:56.382Z,9784
2017-08-28T13:20:06.777Z,9184
2017-08-28T13:21:17.187Z,7012
2017-08-28T13:22:27.549Z,9228
2017-08-28T13:23:37.905Z,6432
2017-08-28T13:24:48.317Z,6328
2017-08-28T13:25:58.692Z,6616
2017-08-28T13:27:09.052Z,8348
2017-08-28T13:28:19.397Z,9216
2017-08-28T13:29:29.418Z,8996
2017-08-28T13:30:39.830Z,7332
2017-08-28T13:31:49.926Z,8132
2017-08-28T13:32:59.965Z,5436
2017-08-28T13:34:10.339Z,6636
2017-08-28T13:35:20.698Z,7960
2017-08-28T13:36:31.098Z,7788
2017-08-28T13:37:41.489Z,6696
2017-08-28T13:38:51.849Z,5212
2017-08-28T13:40:02.241Z,7224
2017-08-28T13:41:12.642Z,5428
2017-08-28T13:42:22.742Z,5192
2017-08-28T13:43:33.116Z,5212
2017-08-28T13:44:46.394Z,5280
2017-08-28T13:45:56.433Z,5032
2017-08-28T13:47:06.823Z,4932
2017-08-28T13:48:17.238Z,6036
2017-08-28T13:49:27.622Z,7596
2017-08-28T13:50:37.987Z,7476
2017-08-28T13:51:47.695Z,5260
2017-08-28T13:52:58.040Z,4908
2017-08-28T13:54:08.441Z,4960
2017-08-28T13:55:18.548Z,5260
2017-08-28T13:56:28.933Z,5572
2017-08-28T13:57:39.295Z,6996
2017-08-28T13:58:49.366Z,6972
2017-08-28T13:59:59.783Z,7068
2017-08-28T14:01:10.141Z,7092
2017-08-28T14:02:20.502Z,7124
2017-08-28T14:03:30.859Z,7204
2017-08-28T14:04:41.230Z,7240
2017-08-28T14:05:51.656Z,7228
2017-08-28T14:07:02.249Z,5220
2017-08-28T14:08:12.298Z,5248
2017-08-28T14:09:22.686Z,4264
2017-08-28T14:10:32.739Z,4944
2017-08-28T14:11:43.175Z,4132
2017-08-28T14:12:53.556Z,6056
2017-08-28T14:14:03.921Z,5884
2017-08-28T14:15:13.963Z,6312
2017-08-28T14:16:24.343Z,6312
2017-08-28T14:17:34.497Z,6272
2017-08-28T14:18:44.582Z,6076
2017-08-28T14:19:54.966Z,6180
2017-08-28T14:21:05.023Z,6196
2017-08-28T14:22:15.408Z,6204
2017-08-28T14:23:25.853Z,6072
2017-08-28T14:24:36.255Z,5688
2017-08-28T14:25:46.621Z,5056
2017-08-28T14:26:56.684Z,4920
2017-08-28T14:28:06.722Z,5044
2017-08-28T14:29:17.092Z,5152
2017-08-28T14:30:27.501Z,5180
2017-08-28T14:31:37.910Z,5296
2017-08-28T14:32:48.285Z,5848
2017-08-28T14:33:58.336Z,5920
2017-08-28T14:35:08.790Z,5760
2017-08-28T14:36:19.157Z,5268
2017-08-28T14:37:29.539Z,5140
2017-08-28T14:38:39.927Z,5996
2017-08-28T14:39:50.309Z,5940
2017-08-28T14:41:00.745Z,6044
2017-08-28T14:42:11.126Z,6084
2017-08-28T14:43:21.529Z,6436
2017-08-28T14:44:31.572Z,6488
2017-08-28T14:45:41.974Z,5796
2017-08-28T14:46:52.410Z,6048
2017-08-28T14:48:02.466Z,6752
2017-08-28T14:49:12.862Z,6572
2017-08-28T14:50:22.589Z,6388
2017-08-28T14:51:32.973Z,6168
2017-08-28T14:52:43.078Z,6176
2017-08-28T14:53:52.818Z,6052
2017-08-28T14:55:02.932Z,4268
2017-08-28T14:56:13.334Z,4084
2017-08-28T14:57:23.720Z,4400
2017-08-28T14:58:34.165Z,5196
2017-08-28T14:59:44.548Z,3584
2017-08-28T15:00:54.965Z,3588
2017-08-28T15:02:05.356Z,4888
2017-08-28T15:03:15.733Z,4932
2017-08-28T15:04:26.161Z,4936
2017-08-28T15:05:36.541Z,4856
2017-08-28T15:06:46.930Z,4796
2017-08-28T15:07:57.005Z,4788
2017-08-28T15:09:07.388Z,4696
2017-08-28T15:10:17.828Z,4652
2017-08-28T15:11:28.204Z,4644
2017-08-28T15:12:38.587Z,4320
2017-08-28T15:13:48.664Z,4388
2017-08-28T15:14:59.078Z,3692
2017-08-28T15:16:09.510Z,3988
2017-08-28T15:17:19.888Z,4296
2017-08-28T15:18:30.278Z,4236
2017-08-28T15:19:40.341Z,4192
2017-08-28T15:20:50.732Z,4164
2017-08-28T15:22:00.870Z,4100
2017-08-28T15:23:10.933Z,2832
2017-08-28T15:24:21.022Z,2860
2017-08-28T15:25:31.395Z,2660
2017-08-28T15:26:41.775Z,2644
2017-08-28T15:27:52.207Z,2648
2017-08-28T15:29:02.598Z,4008
2017-08-28T15:30:12.990Z,4156
2017-08-28T15:31:23.389Z,4120
2017-08-28T15:32:34.523Z,4088
2017-08-28T15:33:44.975Z,4060
2017-08-28T15:34:55.353Z,3968
2017-08-28T15:36:05.727Z,4028
2017-08-28T15:37:28.900Z,4044
2017-08-28T15:38:39.025Z,3988
2017-08-28T15:39:49.415Z,3996
2017-08-28T15:40:59.468Z,3976
2017-08-28T15:42:09.854Z,3912
2017-08-28T15:43:19.935Z,3868
2017-08-28T15:44:30.388Z,3864
2017-08-28T15:45:40.778Z,3844
2017-08-28T15:46:50.821Z,3824
2017-08-28T15:48:01.200Z,3832
2017-08-28T15:49:11.573Z,3828
2017-08-28T15:50:21.674Z,3868
2017-08-28T15:51:32.047Z,3868
2017-08-28T15:52:42.414Z,3816
2017-08-28T15:53:52.782Z,3796
2017-08-28T15:55:03.147Z,3780
2017-08-28T15:56:13.639Z,3784
2017-08-28T15:57:24.036Z,3800
2017-08-28T15:58:34.421Z,3828
2017-08-28T15:59:44.480Z,3768
2017-08-28T16:00:54.850Z,3800
2017-08-28T16:02:05.333Z,3844
2017-08-28T16:03:15.730Z,3844
2017-08-28T16:04:26.117Z,3848
2017-08-28T16:05:36.174Z,3836
2017-08-28T16:06:46.212Z,3832
2017-08-28T16:07:56.678Z,3812
2017-08-28T16:09:07.053Z,3772
2017-08-28T16:10:17.435Z,3700
2017-08-28T16:11:27.811Z,3624
2017-08-28T16:12:38.183Z,3540
2017-08-28T16:13:48.316Z,3524
2017-08-28T16:14:58.716Z,3512
2017-08-28T16:16:09.118Z,3524
2017-08-28T16:17:19.514Z,3500
2017-08-28T16:18:29.544Z,3444
2017-08-28T16:19:39.963Z,3352
2017-08-28T16:20:50.025Z,3244
2017-08-28T16:22:00.429Z,3128
2017-08-28T16:23:10.796Z,3032
2017-08-28T16:24:21.184Z,2912
2017-08-28T16:25:31.627Z,2776
2017-08-28T16:26:42.024Z,2652
2017-08-28T16:27:52.075Z,2572
2017-08-28T16:29:02.377Z,2536